< < Back
Terminal Aerodrome Forecast


Current Version              Previous Versions:   1  2  3  4  5  6  7  8  9  

Terminal Aerodrome Forecast

894
FTUS42 KJAX 281123
TAFGNV
TAF
KGNV 281123Z 2812/2912 05005KT P6SM VCSH SCT025 SCT050 BKN090
     FM281300 07008KT P6SM VCSH SCT025 BKN040
     FM281600 07011KT P6SM VCSH SCT030 BKN040
     FM282300 06009KT P6SM SCT040 BKN120
     FM290200 04003KT P6SM SCT040 BKN120=

Latest METAR

089
SAUS70 KWBC 281900 RRA
MTRGNV
METAR KGNV 281853Z 07010G16KT 10SM SCT042 SCT050 SCT065 32/22 A2999 RMK
AO2 LTG DSNT W RAE06 SLP150 P0005 T03220222


USA.gov is the U.S. government's official web portal to all federal, state and local government web resources and services.